sensor_id;sensor_type;location;lat;lon;timestamp;pressure;altitude;pressure_sealevel;temperature;humidity
42519;BME280;28147;47.520;18.920;2024-01-30T00:00:10;100708.41;;;3.55;62.80
42519;BME280;28147;47.520;18.920;2024-01-30T00:02:35;100708.22;;;3.47;62.91
42519;BME280;28147;47.520;18.920;2024-01-30T00:50:11;100716.88;;;3.07;64.24
42519;BME280;28147;47.520;18.920;2024-01-30T01:01:03;100722.28;;;2.95;64.66
42519;BME280;28147;47.520;18.920;2024-01-30T01:08:16;100714.69;;;3.12;64.16
42519;BME280;28147;47.520;18.920;2024-01-30T01:22:54;100707.56;;;2.71;65.17
42519;BME280;28147;47.520;18.920;2024-01-30T01:25:19;100704.19;;;2.80;64.95
42519;BME280;28147;47.520;18.920;2024-01-30T03:09:22;100668.75;;;2.63;67.06
42519;BME280;28147;47.520;18.920;2024-01-30T03:11:47;100672.94;;;2.66;67.30
42519;BME280;28147;47.520;18.920;2024-01-30T03:15:11;100678.50;;;2.73;67.12
42519;BME280;28147;47.520;18.920;2024-01-30T03:19:40;100683.13;;;2.80;67.29
42519;BME280;28147;47.520;18.920;2024-01-30T03:22:06;100687.69;;;2.46;67.31
42519;BME280;28147;47.520;18.920;2024-01-30T03:24:31;100681.53;;;2.36;68.11
42519;BME280;28147;47.520;18.920;2024-01-30T03:30:58;100672.13;;;2.65;66.65
42519;BME280;28147;47.520;18.920;2024-01-30T03:37:02;100670.44;;;2.64;66.59
42519;BME280;28147;47.520;18.920;2024-01-30T03:50:12;100661.00;;;2.30;67.18
42519;BME280;28147;47.520;18.920;2024-01-30T03:52:38;100654.34;;;2.14;68.05
42519;BME280;28147;47.520;18.920;2024-01-30T04:26:06;100646.81;;;2.21;66.97
42519;BME280;28147;47.520;18.920;2024-01-30T04:48:44;100657.16;;;2.34;68.07
42519;BME280;28147;47.520;18.920;2024-01-30T06:41:29;100713.25;;;1.89;68.76
42519;BME280;28147;47.520;18.920;2024-01-30T06:57:22;100709.88;;;2.64;67.17
42519;BME280;28147;47.520;18.920;2024-01-30T07:22:32;100717.94;;;3.47;66.22
42519;BME280;28147;47.520;18.920;2024-01-30T07:25:29;100710.75;;;3.49;66.44
42519;BME280;28147;47.520;18.920;2024-01-30T07:27:55;100716.41;;;3.75;66.55
42519;BME280;28147;47.520;18.920;2024-01-30T07:32:55;100708.28;;;3.87;66.00
42519;BME280;28147;47.520;18.920;2024-01-30T07:35:20;100711.66;;;3.99;66.08
42519;BME280;28147;47.520;18.920;2024-01-30T07:42:40;100702.03;;;4.29;65.89
42519;BME280;28147;47.520;18.920;2024-01-30T07:45:05;100709.78;;;4.30;65.31
42519;BME280;28147;47.520;18.920;2024-01-30T07:47:31;100700.19;;;4.20;66.04
42519;BME280;28147;47.520;18.920;2024-01-30T07:49:56;100705.59;;;4.28;66.14
42519;BME280;28147;47.520;18.920;2024-01-30T07:52:21;100698.84;;;4.64;65.31
42519;BME280;28147;47.520;18.920;2024-01-30T07:56:57;100703.91;;;5.33;62.56
42519;BME280;28147;47.520;18.920;2024-01-30T07:59:22;100701.38;;;4.85;63.73
42519;BME280;28147;47.520;18.920;2024-01-30T08:01:49;100704.53;;;5.08;64.07
42519;BME280;28147;47.520;18.920;2024-01-30T08:04:15;100704.38;;;5.00;64.51
42519;BME280;28147;47.520;18.920;2024-01-30T08:06:40;100701.19;;;5.06;64.28
42519;BME280;28147;47.520;18.920;2024-01-30T08:09:14;100705.09;;;4.73;64.95
42519;BME280;28147;47.520;18.920;2024-01-30T08:11:39;100707.50;;;5.52;63.54
42519;BME280;28147;47.520;18.920;2024-01-30T08:14:05;100705.19;;;5.76;61.91
42519;BME280;28147;47.520;18.920;2024-01-30T08:16:30;100709.66;;;5.76;61.77
42519;BME280;28147;47.520;18.920;2024-01-30T08:18:55;100716.00;;;5.93;61.90
42519;BME280;28147;47.520;18.920;2024-01-30T08:21:22;100718.97;;;4.84;64.77
42519;BME280;28147;47.520;18.920;2024-01-30T08:23:48;100714.84;;;4.62;66.00
42519;BME280;28147;47.520;18.920;2024-01-30T08:26:13;100722.19;;;3.99;68.12
42519;BME280;28147;47.520;18.920;2024-01-30T08:28:38;100717.69;;;4.30;67.98
42519;BME280;28147;47.520;18.920;2024-01-30T08:31:04;100715.09;;;4.88;66.30
42519;BME280;28147;47.520;18.920;2024-01-30T08:33:29;100716.50;;;4.63;66.52
42519;BME280;28147;47.520;18.920;2024-01-30T08:35:54;100723.16;;;5.06;66.09
42519;BME280;28147;47.520;18.920;2024-01-30T08:38:19;100726.63;;;5.17;65.00
42519;BME280;28147;47.520;18.920;2024-01-30T08:40:45;100728.97;;;4.81;66.39
42519;BME280;28147;47.520;18.920;2024-01-30T08:43:10;100729.53;;;4.65;67.31
42519;BME280;28147;47.520;18.920;2024-01-30T08:45:36;100728.84;;;4.53;68.78
42519;BME280;28147;47.520;18.920;2024-01-30T08:48:01;100733.03;;;4.75;68.52
42519;BME280;28147;47.520;18.920;2024-01-30T08:50:26;100708.16;;;4.58;68.92
42519;BME280;28147;47.520;18.920;2024-01-30T08:52:52;100715.50;;;5.23;67.11
42519;BME280;28147;47.520;18.920;2024-01-30T08:55:17;100712.47;;;5.08;66.70
42519;BME280;28147;47.520;18.920;2024-01-30T08:59:17;100720.59;;;5.44;66.37
42519;BME280;28147;47.520;18.920;2024-01-30T09:01:43;100722.31;;;4.96;67.34
42519;BME280;28147;47.520;18.920;2024-01-30T09:04:08;100715.50;;;5.13;67.04
42519;BME280;28147;47.520;18.920;2024-01-30T09:06:33;100716.06;;;4.68;68.41
42519;BME280;28147;47.520;18.920;2024-01-30T09:08:59;100724.16;;;4.86;68.30
42519;BME280;28147;47.520;18.920;2024-01-30T09:11:24;100721.38;;;4.78;68.24
42519;BME280;28147;47.520;18.920;2024-01-30T09:13:49;100721.22;;;4.89;68.21
42519;BME280;28147;47.520;18.920;2024-01-30T09:16:14;100730.13;;;4.78;67.83
42519;BME280;28147;47.520;18.920;2024-01-30T09:23:08;100723.47;;;4.14;70.77
42519;BME280;28147;47.520;18.920;2024-01-30T09:25:33;100724.22;;;4.26;70.91
42519;BME280;28147;47.520;18.920;2024-01-30T09:27:59;100717.16;;;4.46;71.10
42519;BME280;28147;47.520;18.920;2024-01-30T09:30:24;100719.81;;;3.96;73.07
42519;BME280;28147;47.520;18.920;2024-01-30T09:32:50;100719.09;;;4.25;72.37
42519;BME280;28147;47.520;18.920;2024-01-30T09:35:15;100721.34;;;4.49;71.66
42519;BME280;28147;47.520;18.920;2024-01-30T09:37:40;100716.47;;;5.02;69.81
42519;BME280;28147;47.520;18.920;2024-01-30T09:40:06;100718.88;;;5.52;68.38
42519;BME280;28147;47.520;18.920;2024-01-30T09:42:36;100712.16;;;6.32;65.84
42519;BME280;28147;47.520;18.920;2024-01-30T09:45:02;100716.31;;;5.80;66.19
42519;BME280;28147;47.520;18.920;2024-01-30T09:47:31;100715.09;;;4.88;69.66
42519;BME280;28147;47.520;18.920;2024-01-30T09:49:58;100710.25;;;4.64;71.71
42519;BME280;28147;47.520;18.920;2024-01-30T09:52:23;100712.34;;;4.90;70.98
42519;BME280;28147;47.520;18.920;2024-01-30T09:54:51;100715.31;;;4.18;73.39
42519;BME280;28147;47.520;18.920;2024-01-30T09:57:16;100716.09;;;4.97;71.58
42519;BME280;28147;47.520;18.920;2024-01-30T09:59:42;100716.47;;;5.22;70.20
42519;BME280;28147;47.520;18.920;2024-01-30T10:02:08;100716.13;;;5.44;69.19
42519;BME280;28147;47.520;18.920;2024-01-30T10:04:34;100711.34;;;4.91;70.62
42519;BME280;28147;47.520;18.920;2024-01-30T10:07:02;100727.19;;;4.91;70.72
42519;BME280;28147;47.520;18.920;2024-01-30T10:09:27;100725.25;;;4.93;69.45
42519;BME280;28147;47.520;18.920;2024-01-30T10:11:52;100718.94;;;5.33;69.34
42519;BME280;28147;47.520;18.920;2024-01-30T10:14:18;100714.47;;;5.43;69.06
42519;BME280;28147;47.520;18.920;2024-01-30T10:16:46;100710.38;;;4.53;71.28
42519;BME280;28147;47.520;18.920;2024-01-30T10:19:11;100720.38;;;4.59;71.10
42519;BME280;28147;47.520;18.920;2024-01-30T10:21:36;100721.25;;;4.10;72.65
42519;BME280;28147;47.520;18.920;2024-01-30T10:24:02;100715.31;;;4.27;72.93
42519;BME280;28147;47.520;18.920;2024-01-30T10:26:27;100714.41;;;4.48;72.51
42519;BME280;28147;47.520;18.920;2024-01-30T10:28:54;100707.03;;;4.32;72.04
42519;BME280;28147;47.520;18.920;2024-01-30T10:31:20;100716.78;;;4.80;70.87
42519;BME280;28147;47.520;18.920;2024-01-30T10:33:45;100716.88;;;4.49;70.40
42519;BME280;28147;47.520;18.920;2024-01-30T10:36:14;100711.59;;;4.30;72.17
42519;BME280;28147;47.520;18.920;2024-01-30T10:38:42;100710.03;;;4.27;72.49
42519;BME280;28147;47.520;18.920;2024-01-30T10:41:10;100712.78;;;4.06;73.55
42519;BME280;28147;47.520;18.920;2024-01-30T10:43:41;100703.56;;;4.99;70.18
42519;BME280;28147;47.520;18.920;2024-01-30T10:46:11;100692.06;;;5.00;69.71
42519;BME280;28147;47.520;18.920;2024-01-30T10:48:42;100692.59;;;4.65;70.85
42519;BME280;28147;47.520;18.920;2024-01-30T10:51:10;100683.69;;;4.18;72.36
42519;BME280;28147;47.520;18.920;2024-01-30T10:53:36;100682.47;;;4.90;70.91
42519;BME280;28147;47.520;18.920;2024-01-30T10:56:03;100675.47;;;5.18;69.65
42519;BME280;28147;47.520;18.920;2024-01-30T10:58:29;100681.34;;;4.92;69.28
42519;BME280;28147;47.520;18.920;2024-01-30T11:00:55;100674.69;;;4.69;70.11
42519;BME280;28147;47.520;18.920;2024-01-30T11:03:22;100673.16;;;4.76;70.40
42519;BME280;28147;47.520;18.920;2024-01-30T11:05:51;100669.56;;;4.57;70.52
42519;BME280;28147;47.520;18.920;2024-01-30T11:08:26;100666.09;;;4.57;70.42
42519;BME280;28147;47.520;18.920;2024-01-30T11:13:30;100664.28;;;4.67;70.25
42519;BME280;28147;47.520;18.920;2024-01-30T11:16:51;100664.22;;;4.09;72.21
42519;BME280;28147;47.520;18.920;2024-01-30T11:19:23;100662.03;;;4.24;71.79
42519;BME280;28147;47.520;18.920;2024-01-30T11:21:51;100657.75;;;4.81;70.59
42519;BME280;28147;47.520;18.920;2024-01-30T11:24:22;100647.44;;;5.54;67.54
42519;BME280;28147;47.520;18.920;2024-01-30T11:31:04;100647.34;;;4.50;70.11
42519;BME280;28147;47.520;18.920;2024-01-30T11:35:37;100649.56;;;4.45;70.35
42519;BME280;28147;47.520;18.920;2024-01-30T11:38:04;100650.66;;;5.75;67.16
42519;BME280;28147;47.520;18.920;2024-01-30T11:40:31;100645.97;;;6.60;63.75
42519;BME280;28147;47.520;18.920;2024-01-30T11:42:59;100654.47;;;5.26;64.20
42519;BME280;28147;47.520;18.920;2024-01-30T11:45:26;100645.63;;;6.09;62.69
42519;BME280;28147;47.520;18.920;2024-01-30T11:47:52;100649.44;;;5.70;64.06
42519;BME280;28147;47.520;18.920;2024-01-30T11:50:18;100640.34;;;5.54;64.16
42519;BME280;28147;47.520;18.920;2024-01-30T11:52:44;100638.44;;;5.47;64.79
42519;BME280;28147;47.520;18.920;2024-01-30T11:55:09;100630.56;;;5.27;66.59
42519;BME280;28147;47.520;18.920;2024-01-30T11:58:13;100625.50;;;6.44;62.92
42519;BME280;28147;47.520;18.920;2024-01-30T12:00:39;100625.22;;;6.02;60.67
42519;BME280;28147;47.520;18.920;2024-01-30T12:03:04;100614.53;;;6.21;61.26
42519;BME280;28147;47.520;18.920;2024-01-30T12:06:30;100609.81;;;5.97;63.44
42519;BME280;28147;47.520;18.920;2024-01-30T12:09:00;100614.31;;;6.15;62.59
42519;BME280;28147;47.520;18.920;2024-01-30T12:11:26;100607.06;;;5.89;62.57
42519;BME280;28147;47.520;18.920;2024-01-30T12:13:53;100607.72;;;6.01;61.35
42519;BME280;28147;47.520;18.920;2024-01-30T12:16:19;100600.22;;;5.69;62.81
42519;BME280;28147;47.520;18.920;2024-01-30T12:18:44;100605.63;;;5.02;65.00
42519;BME280;28147;47.520;18.920;2024-01-30T12:21:10;100604.94;;;5.37;63.30
42519;BME280;28147;47.520;18.920;2024-01-30T12:23:35;100602.00;;;5.03;64.32
42519;BME280;28147;47.520;18.920;2024-01-30T12:26:01;100604.16;;;5.27;64.01
42519;BME280;28147;47.520;18.920;2024-01-30T12:28:27;100600.13;;;5.88;61.50
42519;BME280;28147;47.520;18.920;2024-01-30T12:32:57;100598.41;;;5.69;62.14
42519;BME280;28147;47.520;18.920;2024-01-30T12:36:35;100590.25;;;5.63;60.93
42519;BME280;28147;47.520;18.920;2024-01-30T12:39:01;100598.66;;;5.48;61.34
42519;BME280;28147;47.520;18.920;2024-01-30T12:41:56;100593.91;;;5.52;61.08
42519;BME280;28147;47.520;18.920;2024-01-30T12:44:22;100581.53;;;5.52;61.00
42519;BME280;28147;47.520;18.920;2024-01-30T12:47:12;100588.56;;;5.89;59.73
42519;BME280;28147;47.520;18.920;2024-01-30T12:49:37;100578.69;;;5.91;59.26
42519;BME280;28147;47.520;18.920;2024-01-30T12:52:02;100582.25;;;6.00;59.80
42519;BME280;28147;47.520;18.920;2024-01-30T12:56:20;100569.50;;;5.85;59.13
42519;BME280;28147;47.520;18.920;2024-01-30T12:58:45;100565.94;;;6.04;59.94
42519;BME280;28147;47.520;18.920;2024-01-30T13:01:10;100565.75;;;5.60;59.85
42519;BME280;28147;47.520;18.920;2024-01-30T13:03:36;100570.50;;;5.84;59.48
42519;BME280;28147;47.520;18.920;2024-01-30T13:06:01;100566.50;;;5.80;58.13
42519;BME280;28147;47.520;18.920;2024-01-30T13:08:27;100569.75;;;5.09;57.87
42519;BME280;28147;47.520;18.920;2024-01-30T13:10:52;100559.91;;;5.39;57.64
42519;BME280;28147;47.520;18.920;2024-01-30T13:13:18;100559.22;;;5.09;57.27
42519;BME280;28147;47.520;18.920;2024-01-30T13:15:43;100557.84;;;5.05;57.90
42519;BME280;28147;47.520;18.920;2024-01-30T13:18:08;100558.56;;;5.35;57.35
42519;BME280;28147;47.520;18.920;2024-01-30T13:20:34;100553.06;;;5.46;56.49
42519;BME280;28147;47.520;18.920;2024-01-30T13:22:59;100550.16;;;5.49;56.80
42519;BME280;28147;47.520;18.920;2024-01-30T13:25:24;100553.16;;;5.27;56.66
42519;BME280;28147;47.520;18.920;2024-01-30T13:28:32;100545.28;;;5.45;57.13
42519;BME280;28147;47.520;18.920;2024-01-30T13:33:34;100559.03;;;5.21;55.77
42519;BME280;28147;47.520;18.920;2024-01-30T13:35:59;100556.03;;;5.06;56.83
42519;BME280;28147;47.520;18.920;2024-01-30T13:39:23;100554.34;;;5.42;55.87
42519;BME280;28147;47.520;18.920;2024-01-30T13:41:59;100561.84;;;5.09;55.51
42519;BME280;28147;47.520;18.920;2024-01-30T13:44:24;100559.59;;;5.15;56.26
42519;BME280;28147;47.520;18.920;2024-01-30T13:48:54;100549.91;;;5.05;55.06
42519;BME280;28147;47.520;18.920;2024-01-30T13:51:33;100555.28;;;5.13;55.63
42519;BME280;28147;47.520;18.920;2024-01-30T13:54:53;100555.91;;;4.98;54.56
42519;BME280;28147;47.520;18.920;2024-01-30T13:57:18;100546.53;;;5.23;55.11
42519;BME280;28147;47.520;18.920;2024-01-30T14:00:14;100541.84;;;5.07;55.30
42519;BME280;28147;47.520;18.920;2024-01-30T14:02:41;100546.56;;;5.41;54.53
42519;BME280;28147;47.520;18.920;2024-01-30T14:07:05;100545.75;;;5.03;55.83
42519;BME280;28147;47.520;18.920;2024-01-30T14:09:31;100547.78;;;4.81;55.67
42519;BME280;28147;47.520;18.920;2024-01-30T14:11:57;100549.38;;;5.02;55.65
42519;BME280;28147;47.520;18.920;2024-01-30T14:15:12;100551.50;;;5.26;54.84
42519;BME280;28147;47.520;18.920;2024-01-30T14:17:43;100550.19;;;5.12;55.71
42519;BME280;28147;47.520;18.920;2024-01-30T14:21:35;100546.72;;;5.11;55.82
42519;BME280;28147;47.520;18.920;2024-01-30T14:26:42;100536.63;;;5.25;54.95
42519;BME280;28147;47.520;18.920;2024-01-30T14:29:08;100538.38;;;5.61;55.51
42519;BME280;28147;47.520;18.920;2024-01-30T14:31:33;100542.53;;;5.64;53.33
42519;BME280;28147;47.520;18.920;2024-01-30T14:38:10;100533.69;;;5.00;55.03
42519;BME280;28147;47.520;18.920;2024-01-30T14:43:47;100544.28;;;4.81;54.94
42519;BME280;28147;47.520;18.920;2024-01-30T14:48:40;100534.94;;;4.96;54.83
42519;BME280;28147;47.520;18.920;2024-01-30T14:57:22;100538.06;;;4.82;56.24
42519;BME280;28147;47.520;18.920;2024-01-30T15:03:21;100543.16;;;4.93;56.72
42519;BME280;28147;47.520;18.920;2024-01-30T15:05:47;100536.09;;;4.84;57.20
42519;BME280;28147;47.520;18.920;2024-01-30T15:08:12;100534.81;;;4.88;57.35
42519;BME280;28147;47.520;18.920;2024-01-30T15:34:15;100526.47;;;4.46;59.90
42519;BME280;28147;47.520;18.920;2024-01-30T15:36:41;100525.91;;;4.52;59.97
42519;BME280;28147;47.520;18.920;2024-01-30T15:40:53;100529.22;;;4.63;60.27
42519;BME280;28147;47.520;18.920;2024-01-30T15:52:25;100541.38;;;5.21;58.73
42519;BME280;28147;47.520;18.920;2024-01-30T16:05:58;100536.78;;;4.86;58.92
42519;BME280;28147;47.520;18.920;2024-01-30T16:36:55;100533.69;;;5.00;58.50
42519;BME280;28147;47.520;18.920;2024-01-30T17:06:55;100530.97;;;5.47;57.88
42519;BME280;28147;47.520;18.920;2024-01-30T17:16:35;100518.06;;;4.79;60.01
42519;BME280;28147;47.520;18.920;2024-01-30T17:20:19;100509.34;;;5.06;59.67
42519;BME280;28147;47.520;18.920;2024-01-30T17:31:23;100502.31;;;4.97;59.51
42519;BME280;28147;47.520;18.920;2024-01-30T17:39:25;100515.03;;;5.11;59.68
42519;BME280;28147;47.520;18.920;2024-01-30T19:02:47;100493.47;;;4.32;62.92
42519;BME280;28147;47.520;18.920;2024-01-30T19:25:26;100478.78;;;4.10;63.00
42519;BME280;28147;47.520;18.920;2024-01-30T19:43:25;100489.72;;;4.15;61.91
42519;BME280;28147;47.520;18.920;2024-01-30T19:45:50;100484.16;;;4.28;61.84
42519;BME280;28147;47.520;18.920;2024-01-30T19:51:06;100494.88;;;3.78;62.77
42519;BME280;28147;47.520;18.920;2024-01-30T19:57:08;100484.75;;;3.73;62.55
42519;BME280;28147;47.520;18.920;2024-01-30T20:01:04;100486.41;;;3.94;62.87
42519;BME280;28147;47.520;18.920;2024-01-30T20:05:29;100489.19;;;3.92;62.14
42519;BME280;28147;47.520;18.920;2024-01-30T20:29:09;100491.22;;;3.40;62.87
42519;BME280;28147;47.520;18.920;2024-01-30T20:39:50;100489.44;;;3.00;63.90
42519;BME280;28147;47.520;18.920;2024-01-30T20:44:15;100495.03;;;3.16;63.73
42519;BME280;28147;47.520;18.920;2024-01-30T20:50:09;100492.66;;;3.13;63.84
42519;BME280;28147;47.520;18.920;2024-01-30T20:52:35;100486.47;;;3.24;63.24
42519;BME280;28147;47.520;18.920;2024-01-30T20:55:01;100491.16;;;3.11;63.53
42519;BME280;28147;47.520;18.920;2024-01-30T21:03:10;100484.13;;;2.81;64.48
42519;BME280;28147;47.520;18.920;2024-01-30T21:05:35;100482.63;;;2.88;64.08
42519;BME280;28147;47.520;18.920;2024-01-30T21:08:02;100482.66;;;2.98;63.89
42519;BME280;28147;47.520;18.920;2024-01-30T22:09:43;100442.81;;;2.41;66.10
42519;BME280;28147;47.520;18.920;2024-01-30T22:19:13;100427.84;;;2.32;65.77
42519;BME280;28147;47.520;18.920;2024-01-30T22:27:19;100420.47;;;2.56;65.55
42519;BME280;28147;47.520;18.920;2024-01-30T22:32:26;100430.72;;;2.59;65.29
42519;BME280;28147;47.520;18.920;2024-01-30T22:43:02;100433.81;;;2.13;67.15
42519;BME280;28147;47.520;18.920;2024-01-30T23:04:26;100426.44;;;2.28;65.86
